Airfield :
LOGIN :

Register | Disclaimer

   EN    FR    IT 

 










Legend :    VFR   Marginal VFR   IFR   Intensive IFR   Very Intensive IFR
Visi :
Ceiling :
>= 8 km
>= 3000ft
5 to 8 km
1000 to 3000 ft
1500m to 5 km
500 to 1000 ft
800 to 1500m
200 to 500 ft
< 800m
< 200 ft
Symbols :   Thunderstorms  Fog  Heavy snow  Heavy precipitations  Wind > 20 kt
SIGMETs :     Misc.  Thunderstorms  Icing  Turbulence  Mountain Waves  Volcanic Ashes







- Airport Elevation : 184 ft
- IATA code : BRU


EBBR - Bruxelles

CURRENT METAR :
  • 180450Z VRB02KT 4000 BR FEW015 SCT036 11/10 Q1023 NOSIG

EXPIRED METARs :
  • 180420Z 01003KT 4800 BR SCT015 BKN036 11/10 Q1023 TEMPO BKN014
  • 180350Z 36004KT 7000 FEW015 BKN036 11/11 Q1023 NOSIG
  • 180320Z 36004KT 9999 FEW023 BKN038 11/11 Q1022 NOSIG
  • 180250Z 01003KT 350V070 9999 FEW023 BKN038 12/11 Q1022 NOSIG
  • 180220Z 36003KT 9999 FEW023 BKN038 12/11 Q1022 NOSIG

TAF TAF EBBR
Valid from the 18 at 00:00 until the 19 at 06:00 UTC


172302Z 1800/1906 01004KT 9999 SCT025
PROB30
TEMPO 1804/1807 4000 BR
No reported NOTAMs for that airfield.



MET'MAP, your aeronautical weather chart ! - Copyright ORBIFLY December 2007 - Disclaimer

ORBIFLY MET'MAP TEAM :

Programming & Development : Alexandra Zaïnal
Concept & Development : Baudouin d'Aumeries
Co-Development & Prog : Marc-Olivier Méhu
Technical & hardware support : Manuel Goepfert

Contact : metmap@orbifly.com




SOURCES & CREDITS :

   NOAA